createdAt,value
2018-06-17T00:00:25.466Z,1010.92
2018-06-17T00:01:26.046Z,1010.93
2018-06-17T00:02:25.421Z,1010.92
2018-06-17T00:03:25.602Z,1010.91
2018-06-17T00:04:25.372Z,1010.94
2018-06-17T00:05:26.048Z,1010.92
2018-06-17T00:06:25.390Z,1010.87
2018-06-17T00:07:26.059Z,1010.91
2018-06-17T00:08:25.284Z,1010.89
2018-06-17T00:09:26.049Z,1010.90
2018-06-17T00:10:26.098Z,1010.90
2018-06-17T00:11:25.602Z,1010.92
2018-06-17T00:12:25.187Z,1010.91
2018-06-17T00:13:26.051Z,1010.89
2018-06-17T00:14:25.135Z,1010.89
2018-06-17T00:15:25.110Z,1010.86
2018-06-17T00:16:25.144Z,1010.84
2018-06-17T00:17:26.050Z,1010.84
2018-06-17T00:18:25.039Z,1010.82
2018-06-17T00:19:27.552Z,1010.83
2018-06-17T00:20:24.996Z,1010.84
2018-06-17T00:21:25.014Z,1010.84
2018-06-17T00:22:25.556Z,1010.84
2018-06-17T00:23:24.922Z,1010.82
2018-06-17T00:24:25.105Z,1010.83
2018-06-17T00:25:24.873Z,1010.80
2018-06-17T00:26:25.555Z,1010.83
2018-06-17T00:27:24.828Z,1010.82
2018-06-17T00:28:25.563Z,1010.82
2018-06-17T00:29:24.821Z,1010.80
2018-06-17T00:30:24.760Z,1010.81
2018-06-17T00:31:25.552Z,1010.82
2018-06-17T00:32:24.708Z,1010.84
2018-06-17T00:33:25.555Z,1010.82
2018-06-17T00:34:24.704Z,1010.83
2018-06-17T00:35:25.553Z,1010.82
2018-06-17T00:36:24.613Z,1010.81
2018-06-17T00:37:25.556Z,1010.76
2018-06-17T00:38:24.565Z,1010.73
2018-06-17T00:39:24.582Z,1010.78
2018-06-17T00:40:24.516Z,1010.80
2018-06-17T00:41:24.492Z,1010.82
2018-06-17T00:42:25.054Z,1010.79
2018-06-17T00:43:24.441Z,1010.80
2018-06-17T00:44:24.613Z,1010.76
2018-06-17T00:45:24.438Z,1010.78
2018-06-17T00:46:24.370Z,1010.81
2018-06-17T00:47:25.057Z,1010.78
2018-06-17T00:48:24.377Z,1010.81
2018-06-17T00:49:24.300Z,1010.82
2018-06-17T00:50:24.294Z,1010.82
2018-06-17T00:51:25.065Z,1010.78
2018-06-17T00:52:24.265Z,1010.82
2018-06-17T00:53:25.061Z,1010.79
2018-06-17T00:54:24.178Z,1010.79
2018-06-17T00:55:24.200Z,1010.82
2018-06-17T00:56:24.129Z,1010.81
2018-06-17T00:57:25.058Z,1010.78
2018-06-17T00:58:24.139Z,1010.79
2018-06-17T00:59:24.559Z,1010.78
2018-06-17T01:00:24.036Z,1010.77
2018-06-17T01:01:24.115Z,1010.76
2018-06-17T01:02:23.984Z,1010.76
2018-06-17T01:03:24.115Z,1010.77
2018-06-17T01:04:23.943Z,1010.77
2018-06-17T01:05:24.560Z,1010.78
2018-06-17T01:06:23.889Z,1010.81
2018-06-17T01:07:23.947Z,1010.79
2018-06-17T01:08:24.115Z,1010.80
2018-06-17T01:09:23.827Z,1010.78
2018-06-17T01:10:23.791Z,1010.76
2018-06-17T01:11:23.820Z,1010.76
2018-06-17T01:12:24.563Z,1010.76
2018-06-17T01:13:23.719Z,1010.80
2018-06-17T01:14:24.568Z,1010.80
2018-06-17T01:15:23.684Z,1010.76
2018-06-17T01:16:24.118Z,1010.76
2018-06-17T01:17:23.623Z,1010.78
2018-06-17T01:18:24.562Z,1010.79
2018-06-17T01:19:23.572Z,1010.76
2018-06-17T01:20:24.062Z,1010.72
2018-06-17T01:21:23.571Z,1010.73
2018-06-17T01:22:24.066Z,1010.71
2018-06-17T01:23:23.479Z,1010.72
2018-06-17T01:24:23.449Z,1010.70
2018-06-17T01:25:23.432Z,1010.67
2018-06-17T01:26:23.621Z,1010.65
2018-06-17T01:27:23.374Z,1010.67
2018-06-17T01:28:24.064Z,1010.65
2018-06-17T01:29:23.370Z,1010.65
2018-06-17T01:30:23.312Z,1010.69
2018-06-17T01:31:24.077Z,1010.68
2018-06-17T01:32:23.261Z,1010.67
2018-06-17T01:33:24.067Z,1010.65
2018-06-17T01:34:23.246Z,1010.67
2018-06-17T01:35:23.624Z,1010.67
2018-06-17T01:36:23.153Z,1010.61
2018-06-17T01:37:24.079Z,1010.65
2018-06-17T01:38:23.104Z,1010.61
2018-06-17T01:39:24.068Z,1010.57
2018-06-17T01:40:23.101Z,1010.57
2018-06-17T01:41:23.029Z,1010.58
2018-06-17T01:42:23.576Z,1010.61
2018-06-17T01:43:22.993Z,1010.63
2018-06-17T01:44:23.571Z,1010.63
2018-06-17T01:45:22.996Z,1010.60
2018-06-17T01:46:23.569Z,1010.59
2018-06-17T01:47:22.883Z,1010.57
2018-06-17T01:48:23.569Z,1010.60
2018-06-17T01:49:22.833Z,1010.55
2018-06-17T01:50:23.127Z,1010.58
2018-06-17T01:51:22.789Z,1010.56
2018-06-17T01:52:23.571Z,1010.55
2018-06-17T01:53:22.790Z,1010.57
2018-06-17T01:54:23.569Z,1010.55
2018-06-17T01:55:22.687Z,1010.55
2018-06-17T01:56:23.576Z,1010.53
2018-06-17T01:57:22.646Z,1010.55
2018-06-17T01:58:22.667Z,1010.52
2018-06-17T01:59:23.572Z,1010.54
2018-06-17T02:00:22.564Z,1010.54
2018-06-17T02:01:23.069Z,1010.56
2018-06-17T02:02:22.516Z,1010.55
2018-06-17T02:03:22.624Z,1010.59
2018-06-17T02:04:22.464Z,1010.56
2018-06-17T02:05:23.081Z,1010.57
2018-06-17T02:06:22.414Z,1010.58
2018-06-17T02:07:23.072Z,1010.57
2018-06-17T02:08:22.406Z,1010.58
2018-06-17T02:09:22.382Z,1010.55
2018-06-17T02:10:22.312Z,1010.60
2018-06-17T02:11:22.297Z,1010.59
2018-06-17T02:12:22.266Z,1010.59
2018-06-17T02:13:22.243Z,1010.64
2018-06-17T02:14:22.273Z,1010.60
2018-06-17T02:15:22.189Z,1010.58
2018-06-17T02:16:22.175Z,1010.58
2018-06-17T02:17:22.141Z,1010.57
2018-06-17T02:18:22.115Z,1010.58
2018-06-17T02:19:22.138Z,1010.55
2018-06-17T02:20:22.064Z,1010.62
2018-06-17T02:21:22.040Z,1010.60
2018-06-17T02:22:22.017Z,1010.58
2018-06-17T02:23:22.039Z,1010.59
2018-06-17T02:24:21.971Z,1010.59
2018-06-17T02:25:22.007Z,1010.57
2018-06-17T02:26:21.920Z,1010.59
2018-06-17T02:27:21.890Z,1010.61
2018-06-17T02:28:21.879Z,1010.60
2018-06-17T02:29:21.842Z,1010.57
2018-06-17T02:30:21.882Z,1010.57
2018-06-17T02:31:21.793Z,1010.54
2018-06-17T02:32:21.785Z,1010.54
2018-06-17T02:33:21.744Z,1010.53
2018-06-17T02:34:21.729Z,1010.54
2018-06-17T02:35:21.749Z,1010.54
2018-06-17T02:36:21.672Z,1010.49
2018-06-17T02:37:21.656Z,1010.51
2018-06-17T02:38:21.621Z,1010.52
2018-06-17T02:39:21.597Z,1010.50
2018-06-17T02:40:21.627Z,1010.49
2018-06-17T02:41:21.584Z,1010.48
2018-06-17T02:42:21.566Z,1010.50
2018-06-17T02:43:21.524Z,1010.48
2018-06-17T02:44:21.524Z,1010.44
2018-06-17T02:45:21.446Z,1010.48
2018-06-17T02:46:21.424Z,1010.41
2018-06-17T02:47:21.403Z,1010.44
2018-06-17T02:48:21.388Z,1010.39
2018-06-17T02:49:21.386Z,1010.40
2018-06-17T02:50:21.335Z,1010.41
2018-06-17T02:51:22.084Z,1010.39
2018-06-17T02:52:21.309Z,1010.42
2018-06-17T02:53:21.248Z,1010.39
2018-06-17T02:54:21.222Z,1010.40
2018-06-17T02:55:21.241Z,1010.37
2018-06-17T02:56:21.179Z,1010.40
2018-06-17T02:57:21.226Z,1010.41
2018-06-17T02:58:21.123Z,1010.38
2018-06-17T02:59:21.100Z,1010.38
2018-06-17T03:00:21.073Z,1010.38
2018-06-17T03:01:21.103Z,1010.39
2018-06-17T03:02:21.024Z,1010.40
2018-06-17T03:03:21.588Z,1010.41
2018-06-17T03:04:20.975Z,1010.43
2018-06-17T03:05:20.949Z,1010.37
2018-06-17T03:06:20.980Z,1010.37
2018-06-17T03:07:20.897Z,1010.38
2018-06-17T03:08:20.875Z,1010.40
2018-06-17T03:09:20.849Z,1010.35
2018-06-17T03:10:20.822Z,1010.33
2018-06-17T03:11:20.842Z,1010.35
2018-06-17T03:12:20.775Z,1010.33
2018-06-17T03:13:20.751Z,1010.34
2018-06-17T03:14:20.728Z,1010.36
2018-06-17T03:15:20.739Z,1010.34
2018-06-17T03:16:20.690Z,1010.33
2018-06-17T03:17:20.708Z,1010.35
2018-06-17T03:18:20.622Z,1010.34
2018-06-17T03:19:20.616Z,1010.32
2018-06-17T03:20:20.605Z,1010.33
2018-06-17T03:21:20.555Z,1010.32
2018-06-17T03:22:20.573Z,1010.28
2018-06-17T03:23:20.504Z,1010.34
2018-06-17T03:24:20.474Z,1010.30
2018-06-17T03:25:20.451Z,1010.30
2018-06-17T03:26:20.424Z,1010.30
2018-06-17T03:27:20.438Z,1010.31
2018-06-17T03:28:20.422Z,1010.29
2018-06-17T03:29:20.353Z,1010.29
2018-06-17T03:30:20.324Z,1010.29
2018-06-17T03:31:20.301Z,1010.26
2018-06-17T03:32:20.349Z,1010.28
2018-06-17T03:33:20.250Z,1010.26
2018-06-17T03:34:20.226Z,1010.24
2018-06-17T03:35:20.242Z,1010.25
2018-06-17T03:36:20.175Z,1010.25
2018-06-17T03:37:20.166Z,1010.25
2018-06-17T03:38:20.640Z,1010.26
2018-06-17T03:39:20.099Z,1010.26
2018-06-17T03:40:20.119Z,1010.31
2018-06-17T03:41:20.069Z,1010.31
2018-06-17T03:42:20.600Z,1010.29
2018-06-17T03:43:20.039Z,1010.34
2018-06-17T03:44:19.977Z,1010.34
2018-06-17T03:45:19.998Z,1010.34
2018-06-17T03:46:19.972Z,1010.32
2018-06-17T03:47:19.902Z,1010.36
2018-06-17T03:48:19.936Z,1010.37
2018-06-17T03:49:19.855Z,1010.38
2018-06-17T03:50:19.873Z,1010.42
2018-06-17T03:51:19.845Z,1010.43
2018-06-17T03:52:19.814Z,1010.41
2018-06-17T03:53:19.752Z,1010.42
2018-06-17T03:54:19.731Z,1010.42
2018-06-17T03:55:19.751Z,1010.42
2018-06-17T03:56:19.686Z,1010.43
2018-06-17T03:57:19.660Z,1010.43
2018-06-17T03:58:19.637Z,1010.42
2018-06-17T03:59:19.606Z,1010.46
2018-06-17T04:00:19.627Z,1010.46
2018-06-17T04:01:19.563Z,1010.45
2018-06-17T04:02:19.599Z,1010.46
2018-06-17T04:03:19.513Z,1010.46
2018-06-17T04:04:19.486Z,1010.45
2018-06-17T04:05:19.462Z,1010.51
2018-06-17T04:06:19.438Z,1010.48
2018-06-17T04:07:19.463Z,1010.49
2018-06-17T04:08:19.409Z,1010.51
2018-06-17T04:09:19.365Z,1010.49
2018-06-17T04:10:19.359Z,1010.49
2018-06-17T04:11:19.324Z,1010.56
2018-06-17T04:12:19.357Z,1010.49
2018-06-17T04:13:19.274Z,1010.50
2018-06-17T04:14:19.251Z,1010.49
2018-06-17T04:15:19.224Z,1010.47
2018-06-17T04:16:19.205Z,1010.47
2018-06-17T04:17:19.225Z,1010.46
2018-06-17T04:18:19.150Z,1010.45
2018-06-17T04:19:19.137Z,1010.48
2018-06-17T04:20:19.101Z,1010.52
2018-06-17T04:21:19.081Z,1010.53
2018-06-17T04:22:19.107Z,1010.55
2018-06-17T04:23:19.030Z,1010.59
2018-06-17T04:24:19.011Z,1010.68
2018-06-17T04:25:19.010Z,1010.66
2018-06-17T04:26:18.964Z,1010.73
2018-06-17T04:27:18.980Z,1010.73
2018-06-17T04:28:18.914Z,1010.77
2018-06-17T04:29:18.906Z,1010.77
2018-06-17T04:30:18.911Z,1010.76
2018-06-17T04:31:18.849Z,1010.77
2018-06-17T04:32:18.860Z,1010.81
2018-06-17T04:33:18.801Z,1010.78
2018-06-17T04:34:18.782Z,1010.80
2018-06-17T04:35:18.759Z,1010.81
2018-06-17T04:36:18.729Z,1010.81
2018-06-17T04:37:18.746Z,1010.80
2018-06-17T04:38:18.686Z,1010.85
2018-06-17T04:39:18.665Z,1010.85
2018-06-17T04:40:18.641Z,1010.81
2018-06-17T04:41:18.613Z,1010.80
2018-06-17T04:42:18.640Z,1010.79
2018-06-17T04:43:18.570Z,1010.81
2018-06-17T04:44:18.545Z,1010.84
2018-06-17T04:45:18.571Z,1010.87
2018-06-17T04:46:18.503Z,1010.84
2018-06-17T04:47:18.483Z,1010.85
2018-06-17T04:48:18.458Z,1010.87
2018-06-17T04:49:18.433Z,1010.88
2018-06-17T04:50:18.460Z,1010.83
2018-06-17T04:51:18.386Z,1010.85
2018-06-17T04:52:18.368Z,1010.91
2018-06-17T04:53:18.345Z,1010.94
2018-06-17T04:54:18.325Z,1010.94
2018-06-17T04:55:18.351Z,1010.91
2018-06-17T04:56:18.274Z,1010.89
2018-06-17T04:57:18.251Z,1010.91
2018-06-17T04:58:18.241Z,1010.93
2018-06-17T04:59:18.208Z,1010.96
2018-06-17T05:00:18.232Z,1010.98
2018-06-17T05:01:18.163Z,1011.00
2018-06-17T05:02:18.144Z,1011.02
2018-06-17T05:03:18.118Z,1011.07
2018-06-17T05:04:18.102Z,1011.06
2018-06-17T05:05:18.122Z,1011.09
2018-06-17T05:06:18.059Z,1011.11
2018-06-17T05:07:18.035Z,1011.09
2018-06-17T05:08:18.013Z,1011.15
2018-06-17T05:09:17.999Z,1011.17
2018-06-17T05:10:18.014Z,1011.14
2018-06-17T05:11:17.949Z,1011.18
2018-06-17T05:12:17.931Z,1011.24
2018-06-17T05:13:17.911Z,1011.19
2018-06-17T05:14:17.889Z,1011.21
2018-06-17T05:15:17.924Z,1011.19
2018-06-17T05:16:17.856Z,1011.21
2018-06-17T05:17:18.178Z,1011.21
2018-06-17T05:18:17.840Z,1011.19
2018-06-17T05:19:17.793Z,1011.19
2018-06-17T05:20:17.774Z,1011.23
2018-06-17T05:21:17.802Z,1011.20
2018-06-17T05:22:17.734Z,1011.27
2018-06-17T05:23:17.716Z,1011.23
2018-06-17T05:24:17.698Z,1011.22
2018-06-17T05:25:17.678Z,1011.29
2018-06-17T05:26:17.699Z,1011.29
2018-06-17T05:27:17.641Z,1011.28
2018-06-17T05:28:17.624Z,1011.30
2018-06-17T05:29:17.595Z,1011.34
2018-06-17T05:30:17.579Z,1011.32
2018-06-17T05:31:17.617Z,1011.32
2018-06-17T05:32:17.538Z,1011.32
2018-06-17T05:33:17.521Z,1011.31
2018-06-17T05:34:17.495Z,1011.29
2018-06-17T05:35:17.473Z,1011.34
2018-06-17T05:36:17.498Z,1011.34
2018-06-17T05:37:17.488Z,1011.29
2018-06-17T05:38:17.410Z,1011.35
2018-06-17T05:39:17.388Z,1011.32
2018-06-17T05:40:17.374Z,1011.32
2018-06-17T05:41:17.346Z,1011.33
2018-06-17T05:42:17.389Z,1011.33
2018-06-17T05:43:17.307Z,1011.34
2018-06-17T05:44:17.284Z,1011.32
2018-06-17T05:45:17.260Z,1011.29
2018-06-17T05:46:17.240Z,1011.28
2018-06-17T05:47:17.266Z,1011.31
2018-06-17T05:48:17.194Z,1011.29
2018-06-17T05:49:17.675Z,1011.29
2018-06-17T05:50:17.155Z,1011.28
2018-06-17T05:51:17.135Z,1011.29
2018-06-17T05:52:17.109Z,1011.28
2018-06-17T05:53:17.087Z,1011.29
2018-06-17T05:54:17.125Z,1011.27
2018-06-17T05:55:17.045Z,1011.31
2018-06-17T05:56:17.024Z,1011.33
2018-06-17T05:57:17.628Z,1011.32
2018-06-17T05:58:16.977Z,1011.35
2018-06-17T05:59:17.004Z,1011.32
2018-06-17T06:00:16.938Z,1011.35
2018-06-17T06:01:16.915Z,1011.34
2018-06-17T06:02:16.897Z,1011.38
2018-06-17T06:03:16.870Z,1011.38
2018-06-17T06:04:16.912Z,1011.33
2018-06-17T06:05:16.826Z,1011.33
2018-06-17T06:06:16.810Z,1011.32
2018-06-17T06:07:16.782Z,1011.29
2018-06-17T06:08:16.771Z,1011.32
2018-06-17T06:09:16.779Z,1011.31
2018-06-17T06:10:16.779Z,1011.31
2018-06-17T06:11:16.698Z,1011.30
2018-06-17T06:12:16.674Z,1011.32
2018-06-17T06:13:16.662Z,1011.29
2018-06-17T06:14:16.680Z,1011.29
2018-06-17T06:15:16.612Z,1011.30
2018-06-17T06:16:16.585Z,1011.28
2018-06-17T06:17:16.570Z,1011.28
2018-06-17T06:18:16.546Z,1011.30
2018-06-17T06:19:16.683Z,1011.31
2018-06-17T06:20:16.538Z,1011.30
2018-06-17T06:21:16.478Z,1011.34
2018-06-17T06:22:16.498Z,1011.36
2018-06-17T06:23:16.437Z,1011.35
2018-06-17T06:24:16.414Z,1011.36
2018-06-17T06:25:16.437Z,1011.33
2018-06-17T06:26:16.370Z,1011.31
2018-06-17T06:27:16.347Z,1011.36
2018-06-17T06:28:16.327Z,1011.35
2018-06-17T06:29:16.349Z,1011.34
2018-06-17T06:30:16.328Z,1011.34
2018-06-17T06:31:16.261Z,1011.40
2018-06-17T06:32:16.243Z,1011.39
2018-06-17T06:33:16.221Z,1011.39
2018-06-17T06:34:16.203Z,1011.38
2018-06-17T06:35:16.224Z,1011.40
2018-06-17T06:36:16.153Z,1011.40
2018-06-17T06:37:16.144Z,1011.43
2018-06-17T06:38:16.110Z,1011.40
2018-06-17T06:39:16.092Z,1011.44
2018-06-17T06:40:16.110Z,1011.44
2018-06-17T06:41:16.048Z,1011.49
2018-06-17T06:42:16.027Z,1011.51
2018-06-17T06:43:16.006Z,1011.52
2018-06-17T06:44:15.985Z,1011.54
2018-06-17T06:45:16.015Z,1011.56
2018-06-17T06:46:15.939Z,1011.56
2018-06-17T06:47:15.925Z,1011.51
2018-06-17T06:48:15.906Z,1011.53
2018-06-17T06:49:16.640Z,1011.54
2018-06-17T06:50:15.916Z,1011.53
2018-06-17T06:51:15.831Z,1011.57
2018-06-17T06:52:15.813Z,1011.57
2018-06-17T06:53:15.791Z,1011.58
2018-06-17T06:54:15.768Z,1011.56
2018-06-17T06:55:15.797Z,1011.63
2018-06-17T06:56:15.770Z,1011.62
2018-06-17T06:57:15.716Z,1011.66
2018-06-17T06:58:15.684Z,1011.70
2018-06-17T06:59:15.691Z,1011.70
2018-06-17T07:00:15.640Z,1011.74
2018-06-17T07:01:15.664Z,1011.79
2018-06-17T07:02:15.601Z,1011.83
2018-06-17T07:03:15.594Z,1011.84
2018-06-17T07:04:15.558Z,1011.83
2018-06-17T07:05:15.537Z,1011.84
2018-06-17T07:06:15.574Z,1011.84
2018-06-17T07:07:15.498Z,1011.84
2018-06-17T07:08:15.483Z,1011.87
2018-06-17T07:09:15.468Z,1011.91
2018-06-17T07:10:15.440Z,1011.95
2018-06-17T07:11:15.470Z,1011.92
2018-06-17T07:12:15.399Z,1011.89
2018-06-17T07:13:15.371Z,1011.89
2018-06-17T07:14:15.367Z,1011.90
2018-06-17T07:15:15.333Z,1011.93
2018-06-17T07:16:15.351Z,1011.96
2018-06-17T07:17:15.338Z,1011.93
2018-06-17T07:18:15.267Z,1011.93
2018-06-17T07:19:15.330Z,1011.95
2018-06-17T07:20:15.226Z,1011.89
2018-06-17T07:21:15.202Z,1011.93
2018-06-17T07:22:15.182Z,1011.93
2018-06-17T07:23:15.233Z,1011.91
2018-06-17T07:24:15.181Z,1011.94
2018-06-17T07:25:15.119Z,1011.93
2018-06-17T07:26:15.101Z,1011.94
2018-06-17T07:27:15.120Z,1011.94
2018-06-17T07:28:15.108Z,1011.97
2018-06-17T07:29:15.035Z,1012.00
2018-06-17T07:30:15.021Z,1011.96
2018-06-17T07:31:14.995Z,1011.98
2018-06-17T07:32:15.018Z,1012.07
2018-06-17T07:33:14.954Z,1012.00
2018-06-17T07:34:14.976Z,1012.04
2018-06-17T07:35:14.910Z,1012.10
2018-06-17T07:36:14.893Z,1012.06
2018-06-17T07:37:14.924Z,1012.04
2018-06-17T07:38:14.845Z,1012.11
2018-06-17T07:39:14.825Z,1012.09
2018-06-17T07:40:14.847Z,1012.03
2018-06-17T07:41:14.784Z,1012.02
2018-06-17T07:42:14.810Z,1012.09
2018-06-17T07:43:14.796Z,1012.11
2018-06-17T07:44:14.724Z,1012.16
2018-06-17T07:45:14.709Z,1012.19
2018-06-17T07:46:14.680Z,1012.16
2018-06-17T07:47:14.660Z,1012.21
2018-06-17T07:48:14.684Z,1012.24
2018-06-17T07:49:14.623Z,1012.19
2018-06-17T07:50:14.598Z,1012.23
2018-06-17T07:51:14.579Z,1012.15
2018-06-17T07:52:14.605Z,1012.19
2018-06-17T07:53:14.576Z,1012.16
2018-06-17T07:54:14.517Z,1012.20
2018-06-17T07:55:14.503Z,1012.22
2018-06-17T07:56:14.522Z,1012.16
2018-06-17T07:57:14.461Z,1012.23
2018-06-17T07:58:14.439Z,1012.20
2018-06-17T07:59:14.453Z,1012.17
2018-06-17T08:00:14.393Z,1012.25
2018-06-17T08:01:14.420Z,1012.24
2018-06-17T08:02:14.351Z,1012.26
2018-06-17T08:03:14.331Z,1012.23
2018-06-17T08:04:14.315Z,1012.21
2018-06-17T08:05:14.318Z,1012.25
2018-06-17T08:06:14.319Z,1012.21
2018-06-17T08:07:14.251Z,1012.21
2018-06-17T08:08:14.236Z,1012.21
2018-06-17T08:09:14.205Z,1012.15
2018-06-17T08:10:14.207Z,1012.19
2018-06-17T08:11:14.218Z,1012.20
2018-06-17T08:12:14.148Z,1012.18
2018-06-17T08:13:14.125Z,1012.23
2018-06-17T08:14:14.104Z,1012.19
2018-06-17T08:15:14.086Z,1012.27
2018-06-17T08:16:14.118Z,1012.20
2018-06-17T08:17:14.046Z,1012.18
2018-06-17T08:18:14.028Z,1012.15
2018-06-17T08:19:14.001Z,1012.15
2018-06-17T08:20:14.052Z,1012.11
2018-06-17T08:21:14.006Z,1012.16
2018-06-17T08:22:13.941Z,1012.16
2018-06-17T08:23:13.930Z,1012.22
2018-06-17T08:24:13.903Z,1012.17
2018-06-17T08:25:13.925Z,1012.20
2018-06-17T08:26:13.863Z,1012.23
2018-06-17T08:27:13.892Z,1012.19
2018-06-17T08:28:13.821Z,1012.18
2018-06-17T08:29:14.667Z,1012.19
2018-06-17T08:30:13.835Z,1012.15
2018-06-17T08:31:13.764Z,1012.24
2018-06-17T08:32:13.756Z,1012.17
2018-06-17T08:33:13.760Z,1012.21
2018-06-17T08:34:13.699Z,1012.17
2018-06-17T08:35:13.685Z,1012.17
2018-06-17T08:36:13.662Z,1012.15
2018-06-17T08:37:13.644Z,1012.18
2018-06-17T08:38:13.683Z,1012.14
2018-06-17T08:39:13.603Z,1012.16
2018-06-17T08:40:13.589Z,1012.18
2018-06-17T08:41:14.176Z,1012.22
2018-06-17T08:42:13.541Z,1012.18
2018-06-17T08:43:13.585Z,1012.24
2018-06-17T08:44:13.506Z,1012.27
2018-06-17T08:45:13.489Z,1012.23
2018-06-17T08:46:13.468Z,1012.24
2018-06-17T08:47:13.445Z,1012.30
2018-06-17T08:48:13.467Z,1012.33
2018-06-17T08:49:13.405Z,1012.30
2018-06-17T08:50:13.386Z,1012.30
2018-06-17T08:51:13.368Z,1012.29
2018-06-17T08:52:13.348Z,1012.28
2018-06-17T08:53:13.373Z,1012.30
2018-06-17T08:54:13.332Z,1012.26
2018-06-17T08:55:13.288Z,1012.27
2018-06-17T08:56:13.739Z,1012.29
2018-06-17T08:57:13.249Z,1012.24
2018-06-17T08:58:13.242Z,1012.24
2018-06-17T08:59:13.258Z,1012.24
2018-06-17T09:00:14.182Z,1012.28
2018-06-17T09:01:13.216Z,1012.20
2018-06-17T09:02:13.157Z,1012.19
2018-06-17T09:03:13.162Z,1012.19
2018-06-17T09:04:13.202Z,1012.24
2018-06-17T09:05:13.095Z,1012.17
2018-06-17T09:06:13.074Z,1012.20
2018-06-17T09:07:13.059Z,1012.21
2018-06-17T09:08:13.045Z,1012.22
2018-06-17T09:09:13.080Z,1012.24
2018-06-17T09:10:13.011Z,1012.29
2018-06-17T09:11:12.977Z,1012.22
2018-06-17T09:12:12.967Z,1012.23
2018-06-17T09:13:12.937Z,1012.21
2018-06-17T09:14:12.980Z,1012.23
2018-06-17T09:15:12.899Z,1012.23
2018-06-17T09:16:12.896Z,1012.15
2018-06-17T09:17:12.861Z,1012.18
2018-06-17T09:18:12.843Z,1012.14
2018-06-17T09:19:12.871Z,1012.16
2018-06-17T09:20:12.806Z,1012.19
2018-06-17T09:21:12.789Z,1012.18
2018-06-17T09:22:12.830Z,1012.20
2018-06-17T09:23:12.751Z,1012.21
2018-06-17T09:24:12.741Z,1012.24
2018-06-17T09:25:12.754Z,1012.21
2018-06-17T09:26:12.708Z,1012.24
2018-06-17T09:27:12.731Z,1012.20
2018-06-17T09:28:12.648Z,1012.21
2018-06-17T09:29:12.629Z,1012.25
2018-06-17T09:30:12.608Z,1012.19
2018-06-17T09:31:12.663Z,1012.17
2018-06-17T09:32:12.598Z,1012.12
2018-06-17T09:33:12.560Z,1012.12
2018-06-17T09:34:12.531Z,1012.12
2018-06-17T09:35:12.509Z,1012.12
2018-06-17T09:36:12.541Z,1012.11
2018-06-17T09:37:12.516Z,1012.08
2018-06-17T09:38:12.454Z,1012.20
2018-06-17T09:39:12.434Z,1012.15
2018-06-17T09:40:12.415Z,1012.21
2018-06-17T09:41:12.441Z,1012.10
2018-06-17T09:42:12.392Z,1012.12
2018-06-17T09:43:12.357Z,1012.15
2018-06-17T09:44:12.341Z,1012.24
2018-06-17T09:45:12.771Z,1012.24
2018-06-17T09:46:12.298Z,1012.22
2018-06-17T09:47:12.283Z,1012.21
2018-06-17T09:48:12.260Z,1012.25
2018-06-17T09:49:13.303Z,1012.26
2018-06-17T09:50:12.221Z,1012.23
2018-06-17T09:51:12.281Z,1012.28
2018-06-17T09:52:12.219Z,1012.28
2018-06-17T09:53:12.180Z,1012.29
2018-06-17T09:54:12.225Z,1012.26
2018-06-17T09:55:12.165Z,1012.28
2018-06-17T09:56:12.725Z,1012.30
2018-06-17T09:57:12.087Z,1012.28
2018-06-17T09:58:12.071Z,1012.26
2018-06-17T09:59:12.118Z,1012.23
2018-06-17T10:00:12.034Z,1012.26
2018-06-17T10:01:12.029Z,1012.26
2018-06-17T10:02:11.991Z,1012.27
2018-06-17T10:03:13.104Z,1012.30
2018-06-17T10:04:11.999Z,1012.27
2018-06-17T10:05:12.252Z,1012.24
2018-06-17T10:06:11.967Z,1012.25
2018-06-17T10:07:11.896Z,1012.30
2018-06-17T10:08:11.877Z,1012.27
2018-06-17T10:09:11.856Z,1012.28
2018-06-17T10:10:11.839Z,1012.23
2018-06-17T10:11:11.866Z,1012.24
2018-06-17T10:12:11.800Z,1012.24
2018-06-17T10:13:11.785Z,1012.23
2018-06-17T10:14:11.773Z,1012.22
2018-06-17T10:15:11.741Z,1012.20
2018-06-17T10:16:11.776Z,1012.21
2018-06-17T10:17:11.722Z,1012.21
2018-06-17T10:18:11.694Z,1012.23
2018-06-17T10:19:11.677Z,1012.27
2018-06-17T10:20:11.673Z,1012.31
2018-06-17T10:21:11.696Z,1012.27
2018-06-17T10:22:11.611Z,1012.24
2018-06-17T10:23:11.590Z,1012.21
2018-06-17T10:24:11.587Z,1012.33
2018-06-17T10:25:11.548Z,1012.27
2018-06-17T10:26:11.782Z,1012.29
2018-06-17T10:27:11.556Z,1012.26
2018-06-17T10:28:11.493Z,1012.22
2018-06-17T10:29:11.476Z,1012.18
2018-06-17T10:30:11.453Z,1012.19
2018-06-17T10:31:11.435Z,1012.30
2018-06-17T10:32:11.480Z,1012.20
2018-06-17T10:33:11.408Z,1012.19
2018-06-17T10:34:11.376Z,1012.23
2018-06-17T10:35:11.362Z,1012.18
2018-06-17T10:36:11.364Z,1012.18
2018-06-17T10:37:11.357Z,1012.16
2018-06-17T10:38:11.343Z,1012.13
2018-06-17T10:39:11.328Z,1012.15
2018-06-17T10:40:11.274Z,1012.17
2018-06-17T10:41:11.247Z,1012.14
2018-06-17T10:42:11.227Z,1012.22
2018-06-17T10:43:11.249Z,1012.26
2018-06-17T10:44:11.230Z,1012.21
2018-06-17T10:45:11.229Z,1012.24
2018-06-17T10:46:11.192Z,1012.19
2018-06-17T10:47:11.129Z,1012.26
2018-06-17T10:48:11.118Z,1012.20
2018-06-17T10:49:11.179Z,1012.29
2018-06-17T10:50:11.077Z,1012.22
2018-06-17T10:51:11.048Z,1012.21
2018-06-17T10:52:11.035Z,1012.24
2018-06-17T10:53:11.008Z,1012.33
2018-06-17T10:54:11.035Z,1012.31
2018-06-17T10:55:10.971Z,1012.32
2018-06-17T10:56:10.978Z,1012.28
2018-06-17T10:57:10.932Z,1012.26
2018-06-17T10:58:10.935Z,1012.27
2018-06-17T10:59:10.944Z,1012.30
2018-06-17T11:00:10.884Z,1012.28
2018-06-17T11:01:10.858Z,1012.29
2018-06-17T11:02:10.839Z,1012.35
2018-06-17T11:03:10.823Z,1012.32
2018-06-17T11:04:11.268Z,1012.31
2018-06-17T11:05:10.855Z,1012.35
2018-06-17T11:06:10.810Z,1012.36
2018-06-17T11:07:10.742Z,1012.42
2018-06-17T11:08:10.726Z,1012.47
2018-06-17T11:09:10.712Z,1012.33
2018-06-17T11:10:10.688Z,1012.37
2018-06-17T11:11:10.762Z,1012.37
2018-06-17T11:12:10.654Z,1012.34
2018-06-17T11:13:10.682Z,1012.32
2018-06-17T11:14:10.690Z,1012.28
2018-06-17T11:15:10.602Z,1012.30
2018-06-17T11:16:10.599Z,1012.33
2018-06-17T11:17:10.563Z,1012.36
2018-06-17T11:18:10.546Z,1012.38
2018-06-17T11:19:10.571Z,1012.34
2018-06-17T11:20:10.506Z,1012.34
2018-06-17T11:21:10.485Z,1012.37
2018-06-17T11:22:10.517Z,1012.31
2018-06-17T11:23:10.463Z,1012.32
2018-06-17T11:24:10.437Z,1012.34
2018-06-17T11:25:10.413Z,1012.26
2018-06-17T11:26:10.456Z,1012.30
2018-06-17T11:27:10.389Z,1012.32
2018-06-17T11:28:10.363Z,1012.33
2018-06-17T11:29:10.343Z,1012.27
2018-06-17T11:30:10.326Z,1012.24
2018-06-17T11:31:10.355Z,1012.24
2018-06-17T11:32:10.306Z,1012.20
2018-06-17T11:33:10.284Z,1012.23
2018-06-17T11:34:10.257Z,1012.28
2018-06-17T11:35:10.242Z,1012.24
2018-06-17T11:36:11.229Z,1012.27
2018-06-17T11:37:10.204Z,1012.19
2018-06-17T11:38:10.191Z,1012.20
2018-06-17T11:39:10.308Z,1012.22
2018-06-17T11:40:10.158Z,1012.18
2018-06-17T11:41:10.184Z,1012.21
2018-06-17T11:42:10.117Z,1012.23
2018-06-17T11:43:10.097Z,1012.18
2018-06-17T11:44:10.084Z,1012.16
2018-06-17T11:45:10.066Z,1012.18
2018-06-17T11:46:10.102Z,1012.16
2018-06-17T11:47:10.031Z,1012.18
2018-06-17T11:48:10.105Z,1012.11
2018-06-17T11:49:10.051Z,1012.08
2018-06-17T11:50:09.985Z,1012.10
2018-06-17T11:51:09.961Z,1012.11
2018-06-17T11:52:09.945Z,1012.09
2018-06-17T11:53:09.925Z,1012.10
2018-06-17T11:54:09.955Z,1012.11
2018-06-17T11:55:09.890Z,1012.13
2018-06-17T11:56:09.874Z,1012.09
2018-06-17T11:57:09.857Z,1012.23
2018-06-17T11:58:09.877Z,1012.19
2018-06-17T11:59:09.822Z,1012.18
2018-06-17T12:00:09.802Z,1012.15
2018-06-17T12:01:09.789Z,1012.16
2018-06-17T12:02:09.786Z,1012.17
2018-06-17T12:03:09.827Z,1012.13
2018-06-17T12:04:10.245Z,1012.14
2018-06-17T12:05:09.718Z,1012.10